createdAt,value
2023-02-19T00:00:27.433Z,204.52
2023-02-19T00:01:27.427Z,205.29
2023-02-19T00:02:27.412Z,206.66
2023-02-19T00:03:27.421Z,206.15
2023-02-19T00:04:27.390Z,205.59
2023-02-19T00:05:27.370Z,203.95
2023-02-19T00:06:27.340Z,205.35
2023-02-19T00:07:27.295Z,203.97
2023-02-19T00:08:27.288Z,202.89
2023-02-19T00:09:27.253Z,203.67
2023-02-19T00:10:27.240Z,204.80
2023-02-19T00:11:27.238Z,205.12
2023-02-19T00:12:27.228Z,207.03
2023-02-19T00:13:27.162Z,205.13
2023-02-19T00:14:27.150Z,202.68
2023-02-19T00:15:27.122Z,204.34
2023-02-19T00:16:27.142Z,203.56
2023-02-19T00:17:27.125Z,205.16
2023-02-19T00:18:27.065Z,204.98
2023-02-19T00:19:27.080Z,200.32
2023-02-19T00:20:27.052Z,205.88
2023-02-19T00:21:27.067Z,203.57
2023-02-19T00:22:27.020Z,203.00
2023-02-19T00:23:26.995Z,204.06
2023-02-19T00:24:26.958Z,202.75
2023-02-19T00:25:26.954Z,202.34
2023-02-19T00:26:26.954Z,202.56
2023-02-19T00:27:26.941Z,201.50
2023-02-19T00:28:26.921Z,203.41
2023-02-19T00:29:26.902Z,203.20
2023-02-19T00:30:26.980Z,201.26
2023-02-19T00:31:27.085Z,203.56
2023-02-19T00:32:26.893Z,201.41
2023-02-19T00:33:26.886Z,202.13
2023-02-19T00:34:26.852Z,200.87
2023-02-19T00:35:26.825Z,202.68
2023-02-19T00:36:26.830Z,202.01
2023-02-19T00:37:26.779Z,202.62
2023-02-19T00:38:26.775Z,200.16
2023-02-19T00:39:26.737Z,199.39
2023-02-19T00:40:26.749Z,201.25
2023-02-19T00:41:26.810Z,200.01
2023-02-19T00:42:26.710Z,202.58
2023-02-19T00:43:26.687Z,200.58
2023-02-19T00:44:26.678Z,201.86
2023-02-19T00:45:26.643Z,201.22
2023-02-19T00:46:26.700Z,200.93
2023-02-19T00:47:26.637Z,201.48
2023-02-19T00:48:26.622Z,201.38
2023-02-19T00:49:26.577Z,198.76
2023-02-19T00:50:26.579Z,201.05
2023-02-19T00:51:26.540Z,200.79
2023-02-19T00:52:26.545Z,200.00
2023-02-19T00:53:26.504Z,199.92
2023-02-19T00:54:26.524Z,198.77
2023-02-19T00:55:26.474Z,200.66
2023-02-19T00:56:26.502Z,199.03
2023-02-19T00:57:26.480Z,197.83
2023-02-19T00:58:26.428Z,195.76
2023-02-19T00:59:26.413Z,199.95
2023-02-19T01:00:26.377Z,199.02
2023-02-19T01:01:26.392Z,199.27
2023-02-19T01:02:26.390Z,198.64
2023-02-19T01:03:26.353Z,196.86
2023-02-19T01:04:26.369Z,197.13
2023-02-19T01:05:26.290Z,197.65
2023-02-19T01:06:26.289Z,197.84
2023-02-19T01:07:26.284Z,197.81
2023-02-19T01:08:26.265Z,198.96
2023-02-19T01:09:26.235Z,200.90
2023-02-19T01:10:26.264Z,199.55
2023-02-19T01:11:26.228Z,199.24
2023-02-19T01:12:26.203Z,197.57
2023-02-19T01:13:26.203Z,198.23
2023-02-19T01:14:26.155Z,198.98
2023-02-19T01:15:26.118Z,199.75
2023-02-19T01:16:26.252Z,197.22
2023-02-19T01:17:26.116Z,198.49
2023-02-19T01:18:26.071Z,199.14
2023-02-19T01:19:26.098Z,199.08
2023-02-19T01:20:26.083Z,198.99
2023-02-19T01:21:26.066Z,195.52
2023-02-19T01:22:26.075Z,199.89
2023-02-19T01:23:26.044Z,198.39
2023-02-19T01:24:26.026Z,198.79
2023-02-19T01:25:26.000Z,197.54
2023-02-19T01:26:26.007Z,194.61
2023-02-19T01:27:25.987Z,196.02
2023-02-19T01:28:25.955Z,197.71
2023-02-19T01:29:25.929Z,197.32
2023-02-19T01:30:25.998Z,198.58
2023-02-19T01:31:26.021Z,196.41
2023-02-19T01:32:25.919Z,198.69
2023-02-19T01:33:25.890Z,196.52
2023-02-19T01:34:25.893Z,195.76
2023-02-19T01:35:25.842Z,198.43
2023-02-19T01:36:25.852Z,197.82
2023-02-19T01:37:25.821Z,195.94
2023-02-19T01:38:25.826Z,195.96
2023-02-19T01:39:25.788Z,195.84
2023-02-19T01:40:25.788Z,196.43
2023-02-19T01:41:25.785Z,195.03
2023-02-19T01:42:25.757Z,196.08
2023-02-19T01:43:25.777Z,193.92
2023-02-19T01:44:25.749Z,195.42
2023-02-19T01:45:25.697Z,194.56
2023-02-19T01:46:25.744Z,195.47
2023-02-19T01:47:25.693Z,196.63
2023-02-19T01:48:25.657Z,194.80
2023-02-19T01:49:25.619Z,194.66
2023-02-19T01:50:25.629Z,195.13
2023-02-19T01:51:25.598Z,194.40
2023-02-19T01:52:25.599Z,194.97
2023-02-19T01:53:25.636Z,194.47
2023-02-19T01:54:25.577Z,193.62
2023-02-19T01:55:25.627Z,193.38
2023-02-19T01:56:25.534Z,192.62
2023-02-19T01:57:25.544Z,193.78
2023-02-19T01:58:25.556Z,195.34
2023-02-19T01:59:25.524Z,193.98
2023-02-19T02:00:25.565Z,194.97
2023-02-19T02:01:25.491Z,194.04
2023-02-19T02:02:25.464Z,195.13
2023-02-19T02:03:25.467Z,193.89
2023-02-19T02:04:25.465Z,191.72
2023-02-19T02:05:25.426Z,194.19
2023-02-19T02:06:25.426Z,194.61
2023-02-19T02:07:25.404Z,193.62
2023-02-19T02:08:25.405Z,190.28
2023-02-19T02:09:25.355Z,196.54
2023-02-19T02:10:25.358Z,192.06
2023-02-19T02:11:25.338Z,192.42
2023-02-19T02:12:25.330Z,192.15
2023-02-19T02:13:25.340Z,192.98
2023-02-19T02:14:25.306Z,193.53
2023-02-19T02:15:25.316Z,193.23
2023-02-19T02:16:25.310Z,190.35
2023-02-19T02:17:25.291Z,192.18
2023-02-19T02:18:25.290Z,191.83
2023-02-19T02:19:25.256Z,192.03
2023-02-19T02:20:25.225Z,191.31
2023-02-19T02:21:25.219Z,190.21
2023-02-19T02:22:25.189Z,193.16
2023-02-19T02:23:25.208Z,193.06
2023-02-19T02:24:25.164Z,191.22
2023-02-19T02:25:25.172Z,191.02
2023-02-19T02:26:25.123Z,191.30
2023-02-19T02:27:25.135Z,191.70
2023-02-19T02:28:25.119Z,192.06
2023-02-19T02:29:25.162Z,189.54
2023-02-19T02:30:25.080Z,189.52
2023-02-19T02:31:25.135Z,187.61
2023-02-19T02:32:25.051Z,188.02
2023-02-19T02:33:25.024Z,183.90
2023-02-19T02:34:25.015Z,173.52
2023-02-19T02:35:25.011Z,169.16
2023-02-19T02:36:24.961Z,166.18
2023-02-19T02:37:24.966Z,156.45
2023-02-19T02:38:24.942Z,146.86
2023-02-19T02:39:24.934Z,140.61
2023-02-19T02:40:24.909Z,131.35
2023-02-19T02:41:24.903Z,119.76
2023-02-19T02:42:24.898Z,115.66
2023-02-19T02:43:24.901Z,97.56
2023-02-19T02:44:24.881Z,92.11
2023-02-19T02:45:24.910Z,80.00
2023-02-19T02:46:24.861Z,70.46
2023-02-19T02:47:24.854Z,64.77
2023-02-19T02:48:24.830Z,60.40
2023-02-19T02:49:24.834Z,55.79
2023-02-19T02:50:24.810Z,47.88
2023-02-19T02:51:24.815Z,42.67
2023-02-19T02:52:24.812Z,33.24
2023-02-19T02:53:24.783Z,25.00
2023-02-19T02:54:24.789Z,26.33
2023-02-19T02:55:24.786Z,25.10
2023-02-19T02:56:24.788Z,25.00
2023-02-19T02:57:24.753Z,25.00
2023-02-19T02:58:24.761Z,24.71
2023-02-19T02:59:24.727Z,25.00
2023-02-19T03:00:24.722Z,27.04
2023-02-19T03:01:24.733Z,25.59
2023-02-19T03:02:25.380Z,25.00
2023-02-19T03:03:24.726Z,26.11
2023-02-19T03:04:24.688Z,25.00
2023-02-19T03:05:24.702Z,25.00
2023-02-19T03:06:24.711Z,27.82
2023-02-19T03:07:24.668Z,26.11
2023-02-19T03:08:24.676Z,20.01
2023-02-19T03:09:24.678Z,3.41
2023-02-19T03:10:24.680Z,0.00
2023-02-19T03:11:24.661Z,0.00
2023-02-19T03:12:24.646Z,12.06
2023-02-19T03:13:24.653Z,25.10
2023-02-19T03:14:24.655Z,35.13
2023-02-19T03:15:24.643Z,31.08
2023-02-19T03:16:24.710Z,25.00
2023-02-19T03:17:24.613Z,28.42
2023-02-19T03:18:24.617Z,31.56
2023-02-19T03:19:24.622Z,46.08
2023-02-19T03:20:24.600Z,54.78
2023-02-19T03:21:24.579Z,51.35
2023-02-19T03:22:24.586Z,57.05
2023-02-19T03:23:24.561Z,54.42
2023-02-19T03:24:24.548Z,54.84
2023-02-19T03:25:24.558Z,50.43
2023-02-19T03:26:24.534Z,50.18
2023-02-19T03:27:24.535Z,47.67
2023-02-19T03:28:24.548Z,47.82
2023-02-19T03:29:24.513Z,45.45
2023-02-19T03:30:24.541Z,36.47
2023-02-19T03:31:24.629Z,29.91
2023-02-19T03:32:24.492Z,26.43
2023-02-19T03:33:24.481Z,28.25
2023-02-19T03:34:26.148Z,26.28
2023-02-19T03:35:24.475Z,26.89
2023-02-19T03:36:24.470Z,26.78
2023-02-19T03:37:24.470Z,28.98
2023-02-19T03:38:24.449Z,27.22
2023-02-19T03:39:24.448Z,26.78
2023-02-19T03:40:24.447Z,27.65
2023-02-19T03:41:24.451Z,29.15
2023-02-19T03:42:24.429Z,25.05
2023-02-19T03:43:24.461Z,30.36
2023-02-19T03:44:24.451Z,27.74
2023-02-19T03:45:24.467Z,26.00
2023-02-19T03:46:24.418Z,27.37
2023-02-19T03:47:24.434Z,25.90
2023-02-19T03:48:24.436Z,26.28
2023-02-19T03:49:24.419Z,31.06
2023-02-19T03:50:24.449Z,29.96
2023-02-19T03:51:24.410Z,26.82
2023-02-19T03:52:24.406Z,25.00
2023-02-19T03:53:24.433Z,24.40
2023-02-19T03:54:24.416Z,25.00
2023-02-19T03:55:24.461Z,25.54
2023-02-19T03:56:24.406Z,24.09
2023-02-19T03:57:24.425Z,25.66
2023-02-19T03:58:24.389Z,27.00
2023-02-19T03:59:24.392Z,26.82
2023-02-19T04:00:24.406Z,25.97
2023-02-19T04:01:24.397Z,26.10
2023-02-19T04:02:24.429Z,31.36
2023-02-19T04:03:24.392Z,30.29
2023-02-19T04:04:24.407Z,29.71
2023-02-19T04:05:24.375Z,25.00
2023-02-19T04:06:24.373Z,31.35
2023-02-19T04:07:24.349Z,35.57
2023-02-19T04:08:24.342Z,32.37
2023-02-19T04:09:24.319Z,28.22
2023-02-19T04:10:24.339Z,25.47
2023-02-19T04:11:24.345Z,26.94
2023-02-19T04:12:24.342Z,28.95
2023-02-19T04:13:24.313Z,25.00
2023-02-19T04:14:24.321Z,29.67
2023-02-19T04:15:24.344Z,30.29
2023-02-19T04:16:24.331Z,27.37
2023-02-19T04:17:24.315Z,25.37
2023-02-19T04:18:24.289Z,27.14
2023-02-19T04:19:24.315Z,32.45
2023-02-19T04:20:24.306Z,33.08
2023-02-19T04:21:24.325Z,32.81
2023-02-19T04:22:24.305Z,30.73
2023-02-19T04:23:24.312Z,33.30
2023-02-19T04:24:24.295Z,32.16
2023-02-19T04:25:24.276Z,30.92
2023-02-19T04:26:24.283Z,34.51
2023-02-19T04:27:24.274Z,32.82
2023-02-19T04:28:24.300Z,33.61
2023-02-19T04:29:24.252Z,35.06
2023-02-19T04:30:24.361Z,36.74
2023-02-19T04:31:24.377Z,36.51
2023-02-19T04:32:24.258Z,35.16
2023-02-19T04:33:24.273Z,37.12
2023-02-19T04:34:24.251Z,40.65
2023-02-19T04:35:24.265Z,43.81
2023-02-19T04:36:24.269Z,45.80
2023-02-19T04:37:24.250Z,45.90
2023-02-19T04:38:24.254Z,42.49
2023-02-19T04:39:24.247Z,40.08
2023-02-19T04:40:24.264Z,38.92
2023-02-19T04:41:24.270Z,34.94
2023-02-19T04:42:24.236Z,27.77
2023-02-19T04:43:24.233Z,25.00
2023-02-19T04:44:24.241Z,25.00
2023-02-19T04:45:24.266Z,25.00
2023-02-19T04:46:24.293Z,26.25
2023-02-19T04:47:24.258Z,26.32
2023-02-19T04:48:24.235Z,25.00
2023-02-19T04:49:24.219Z,28.16
2023-02-19T04:50:24.239Z,25.41
2023-02-19T04:51:24.256Z,25.82
2023-02-19T04:52:24.219Z,28.06
2023-02-19T04:53:24.192Z,25.19
2023-02-19T04:54:24.197Z,25.00
2023-02-19T04:55:24.206Z,25.00
2023-02-19T04:56:24.230Z,30.67
2023-02-19T04:57:24.222Z,24.45
2023-02-19T04:58:24.242Z,29.65
2023-02-19T04:59:24.232Z,27.18
2023-02-19T05:00:24.187Z,26.48
2023-02-19T05:01:24.233Z,25.00
2023-02-19T05:02:24.235Z,27.03
2023-02-19T05:03:24.209Z,27.93
2023-02-19T05:04:24.324Z,27.61
2023-02-19T05:05:24.209Z,27.90
2023-02-19T05:06:24.220Z,33.14
2023-02-19T05:07:24.220Z,27.61
2023-02-19T05:08:24.205Z,33.27
2023-02-19T05:09:24.223Z,25.84
2023-02-19T05:10:24.195Z,29.92
2023-02-19T05:11:24.204Z,29.60
2023-02-19T05:12:24.212Z,25.85
2023-02-19T05:13:24.205Z,27.38
2023-02-19T05:14:24.233Z,29.86
2023-02-19T05:15:24.196Z,33.50
2023-02-19T05:16:24.202Z,39.36
2023-02-19T05:17:24.214Z,38.04
2023-02-19T05:18:24.202Z,38.73
2023-02-19T05:19:24.215Z,43.77
2023-02-19T05:20:24.200Z,41.58
2023-02-19T05:21:24.181Z,48.90
2023-02-19T05:22:24.197Z,47.66
2023-02-19T05:23:24.197Z,44.82
2023-02-19T05:24:24.208Z,38.49
2023-02-19T05:25:24.171Z,41.60
2023-02-19T05:26:24.207Z,43.15
2023-02-19T05:27:24.192Z,40.63
2023-02-19T05:28:24.190Z,36.07
2023-02-19T05:29:24.164Z,35.76
2023-02-19T05:30:24.183Z,39.69
2023-02-19T05:31:24.302Z,38.91
2023-02-19T05:32:24.181Z,39.42
2023-02-19T05:33:24.163Z,42.94
2023-02-19T05:34:24.168Z,43.98
2023-02-19T05:35:24.176Z,45.36
2023-02-19T05:36:24.168Z,43.19
2023-02-19T05:37:24.178Z,52.92
2023-02-19T05:38:24.153Z,55.30
2023-02-19T05:39:24.145Z,56.12
2023-02-19T05:40:24.155Z,53.92
2023-02-19T05:41:24.161Z,58.91
2023-02-19T05:42:24.156Z,64.03
2023-02-19T05:43:24.137Z,63.60
2023-02-19T05:44:24.142Z,61.98
2023-02-19T05:45:24.155Z,64.25
2023-02-19T05:46:24.204Z,66.80
2023-02-19T05:47:24.167Z,65.30
2023-02-19T05:48:24.128Z,71.20
2023-02-19T05:49:24.143Z,74.03
2023-02-19T05:50:24.129Z,76.27
2023-02-19T05:51:24.119Z,82.74
2023-02-19T05:52:24.155Z,84.42
2023-02-19T05:53:24.173Z,88.50
2023-02-19T05:54:24.114Z,91.36
2023-02-19T05:55:24.111Z,88.33
2023-02-19T05:56:24.138Z,90.49
2023-02-19T05:57:24.128Z,91.48
2023-02-19T05:58:24.139Z,94.32
2023-02-19T05:59:24.184Z,93.74
2023-02-19T06:00:24.140Z,94.43
2023-02-19T06:01:24.158Z,93.61
2023-02-19T06:02:24.214Z,95.89
2023-02-19T06:03:24.216Z,101.45
2023-02-19T06:04:24.147Z,97.49
2023-02-19T06:05:24.158Z,96.40
2023-02-19T06:06:24.150Z,100.85
2023-02-19T06:07:24.158Z,99.68
2023-02-19T06:08:24.159Z,102.61
2023-02-19T06:09:24.154Z,96.89
2023-02-19T06:10:24.168Z,90.76
2023-02-19T06:11:24.165Z,87.04
2023-02-19T06:12:24.178Z,89.75
2023-02-19T06:13:24.209Z,91.85
2023-02-19T06:14:24.175Z,96.76
2023-02-19T06:15:24.202Z,93.63
2023-02-19T06:16:24.379Z,97.70
2023-02-19T06:17:24.172Z,98.09
2023-02-19T06:18:24.228Z,103.87
2023-02-19T06:19:24.198Z,105.85
2023-02-19T06:20:26.060Z,108.99
2023-02-19T06:21:24.184Z,112.42
2023-02-19T06:22:24.202Z,114.24
2023-02-19T06:23:24.172Z,111.30
2023-02-19T06:24:24.194Z,113.65
2023-02-19T06:25:24.179Z,122.17
2023-02-19T06:26:24.193Z,119.60
2023-02-19T06:27:24.177Z,120.13
2023-02-19T06:28:24.208Z,118.38
2023-02-19T06:29:24.206Z,113.21
2023-02-19T06:30:24.324Z,112.72
2023-02-19T06:31:24.341Z,109.06
2023-02-19T06:32:24.453Z,113.47
2023-02-19T06:33:24.217Z,114.16
2023-02-19T06:34:24.179Z,117.97
2023-02-19T06:35:24.177Z,115.89
2023-02-19T06:36:24.186Z,114.28
2023-02-19T06:37:24.218Z,114.53
2023-02-19T06:38:24.206Z,117.29
2023-02-19T06:39:24.206Z,114.92
2023-02-19T06:40:24.227Z,115.73
2023-02-19T06:41:24.188Z,112.30
2023-02-19T06:42:24.194Z,111.60
2023-02-19T06:43:24.241Z,110.88
2023-02-19T06:44:24.215Z,111.73
2023-02-19T06:45:24.172Z,117.47
2023-02-19T06:46:24.313Z,116.17
2023-02-19T06:47:25.493Z,115.84
2023-02-19T06:48:24.197Z,113.16
2023-02-19T06:49:24.176Z,114.24
2023-02-19T06:50:24.177Z,118.15
2023-02-19T06:51:24.179Z,120.21
2023-02-19T06:52:24.185Z,124.91
2023-02-19T06:53:24.188Z,127.73
2023-02-19T06:54:24.162Z,127.94
2023-02-19T06:55:24.158Z,127.80
2023-02-19T06:56:24.163Z,129.79
2023-02-19T06:57:24.149Z,130.97
2023-02-19T06:58:24.170Z,132.60
2023-02-19T06:59:24.160Z,130.98
2023-02-19T07:00:24.144Z,132.59
2023-02-19T07:01:24.169Z,129.20
2023-02-19T07:02:24.137Z,134.07
2023-02-19T07:03:24.159Z,137.14
2023-02-19T07:04:24.238Z,139.35
2023-02-19T07:05:24.144Z,141.74
2023-02-19T07:06:24.155Z,142.64
2023-02-19T07:07:24.125Z,147.76
2023-02-19T07:08:24.148Z,151.56
2023-02-19T07:09:24.155Z,150.70
2023-02-19T07:10:24.143Z,156.29
2023-02-19T07:11:24.159Z,163.18
2023-02-19T07:12:24.161Z,161.97
2023-02-19T07:13:24.134Z,161.69
2023-02-19T07:14:24.144Z,165.18
2023-02-19T07:15:24.128Z,166.21
2023-02-19T07:16:24.142Z,169.00
2023-02-19T07:17:24.164Z,172.77
2023-02-19T07:18:24.164Z,177.03
2023-02-19T07:19:24.170Z,174.23
2023-02-19T07:20:24.183Z,186.50
2023-02-19T07:21:24.149Z,186.15
2023-02-19T07:22:24.178Z,189.69
2023-02-19T07:23:24.163Z,195.06
2023-02-19T07:24:24.175Z,191.72
2023-02-19T07:25:24.166Z,194.41
2023-02-19T07:26:24.178Z,195.41
2023-02-19T07:27:24.184Z,198.38
2023-02-19T07:28:24.164Z,195.21
2023-02-19T07:29:24.167Z,195.72
2023-02-19T07:30:24.230Z,188.87
2023-02-19T07:31:24.340Z,188.41
2023-02-19T07:32:24.190Z,190.96
2023-02-19T07:33:24.171Z,195.47
2023-02-19T07:34:24.208Z,193.11
2023-02-19T07:35:24.182Z,190.55
2023-02-19T07:36:24.178Z,191.66
2023-02-19T07:37:24.194Z,195.18
2023-02-19T07:38:24.233Z,190.07
2023-02-19T07:39:24.257Z,192.71
2023-02-19T07:40:24.250Z,189.95
2023-02-19T07:41:24.240Z,189.58
2023-02-19T07:42:24.235Z,186.43
2023-02-19T07:43:24.353Z,183.33
2023-02-19T07:44:24.224Z,184.46
2023-02-19T07:45:24.322Z,182.41
2023-02-19T07:46:24.225Z,183.42
2023-02-19T07:47:24.274Z,179.32
2023-02-19T07:48:24.248Z,180.19
2023-02-19T07:49:24.248Z,181.98
2023-02-19T07:50:24.277Z,180.06
2023-02-19T07:51:24.270Z,180.68
2023-02-19T07:52:24.288Z,191.67
2023-02-19T07:53:24.294Z,201.64
2023-02-19T07:54:24.272Z,212.81
2023-02-19T07:55:24.304Z,217.96
2023-02-19T07:56:24.291Z,225.66
2023-02-19T07:57:24.292Z,226.83
2023-02-19T07:58:24.296Z,228.74
2023-02-19T07:59:24.337Z,229.03
2023-02-19T08:00:24.302Z,229.93
2023-02-19T08:01:24.352Z,233.40
2023-02-19T08:02:24.339Z,236.42
2023-02-19T08:03:24.447Z,241.15
2023-02-19T08:04:24.319Z,245.44
2023-02-19T08:05:24.351Z,246.97
2023-02-19T08:06:24.318Z,247.45
2023-02-19T08:07:24.309Z,247.31
2023-02-19T08:08:24.327Z,246.46
2023-02-19T08:09:24.334Z,239.42
2023-02-19T08:10:24.384Z,241.18
2023-02-19T08:11:24.334Z,238.58
2023-02-19T08:12:24.346Z,236.42
2023-02-19T08:13:24.352Z,237.79
2023-02-19T08:14:24.346Z,240.06
2023-02-19T08:15:24.359Z,236.96
2023-02-19T08:16:40.741Z,238.12
2023-02-19T08:17:25.441Z,238.43
2023-02-19T08:18:24.327Z,239.36
2023-02-19T08:19:24.331Z,240.91
2023-02-19T08:20:24.350Z,240.36
2023-02-19T08:21:24.345Z,244.07
2023-02-19T08:22:24.322Z,242.80
2023-02-19T08:23:24.347Z,249.83
2023-02-19T08:24:24.326Z,248.82
2023-02-19T08:25:24.334Z,249.04
2023-02-19T08:26:24.350Z,247.95
2023-02-19T08:27:24.352Z,246.30
2023-02-19T08:28:24.362Z,248.92
2023-02-19T08:29:24.369Z,247.51
2023-02-19T08:30:24.467Z,247.76
2023-02-19T08:31:24.419Z,249.16
2023-02-19T08:32:24.347Z,252.36
2023-02-19T08:33:24.353Z,256.11
2023-02-19T08:34:24.333Z,264.15
2023-02-19T08:35:24.380Z,248.75
2023-02-19T08:36:24.376Z,249.20
2023-02-19T08:37:24.346Z,249.82
2023-02-19T08:38:24.334Z,249.22
2023-02-19T08:39:24.365Z,249.20
2023-02-19T08:40:24.375Z,248.54
2023-02-19T08:41:24.359Z,249.54
2023-02-19T08:42:24.347Z,246.94
2023-02-19T08:43:24.326Z,249.35
2023-02-19T08:44:24.364Z,248.59
2023-02-19T08:45:24.340Z,248.71
2023-02-19T08:46:24.433Z,249.40
2023-02-19T08:47:24.306Z,250.00
2023-02-19T08:48:24.312Z,247.50
2023-02-19T08:49:24.301Z,246.68
2023-02-19T08:50:24.410Z,246.83
2023-02-19T08:51:24.322Z,248.57
2023-02-19T08:52:24.317Z,248.87
2023-02-19T08:53:24.299Z,246.23
2023-02-19T08:54:24.289Z,249.06
2023-02-19T08:55:24.330Z,248.81
2023-02-19T08:56:24.314Z,248.12
2023-02-19T08:57:24.328Z,247.49
2023-02-19T08:58:24.284Z,249.41
2023-02-19T08:59:24.271Z,249.85
2023-02-19T09:00:24.373Z,247.07
2023-02-19T09:01:24.377Z,248.49
2023-02-19T09:02:24.251Z,248.64
2023-02-19T09:03:24.225Z,245.92
2023-02-19T09:04:24.311Z,250.00
2023-02-19T09:05:24.211Z,246.45
2023-02-19T09:06:24.215Z,249.05
2023-02-19T09:07:24.239Z,248.87
2023-02-19T09:08:24.224Z,249.41
2023-02-19T09:09:24.203Z,247.09
2023-02-19T09:10:24.160Z,247.16
2023-02-19T09:11:24.166Z,248.31
2023-02-19T09:12:24.140Z,248.53
2023-02-19T09:13:24.117Z,248.82
2023-02-19T09:14:24.144Z,249.57
2023-02-19T09:15:24.096Z,251.74
2023-02-19T09:16:24.068Z,252.53
2023-02-19T09:17:24.107Z,248.72
2023-02-19T09:18:24.037Z,248.16
2023-02-19T09:19:24.042Z,246.45
2023-02-19T09:20:24.008Z,249.73
2023-02-19T09:21:24.055Z,247.37
2023-02-19T09:22:24.023Z,247.93
2023-02-19T09:23:23.970Z,248.86
2023-02-19T09:24:23.975Z,249.37
2023-02-19T09:25:23.950Z,249.96
2023-02-19T09:26:23.946Z,246.56
2023-02-19T09:27:23.987Z,250.00
2023-02-19T09:28:23.938Z,249.63
2023-02-19T09:29:23.888Z,248.79
2023-02-19T09:30:23.988Z,248.56
2023-02-19T09:31:23.981Z,248.75
2023-02-19T09:32:23.858Z,249.27
2023-02-19T09:33:23.920Z,249.64
2023-02-19T09:34:23.801Z,250.61
2023-02-19T09:35:23.805Z,251.21
2023-02-19T09:36:23.796Z,248.91
2023-02-19T09:37:23.766Z,248.85
2023-02-19T09:38:23.768Z,248.19
2023-02-19T09:39:23.745Z,249.78
2023-02-19T09:40:23.675Z,247.79
2023-02-19T09:41:23.699Z,249.31
2023-02-19T09:42:23.682Z,246.83
2023-02-19T09:43:23.629Z,249.34
2023-02-19T09:44:23.643Z,249.05
2023-02-19T09:45:23.583Z,249.58
2023-02-19T09:46:23.580Z,248.14
2023-02-19T09:47:23.634Z,249.08
2023-02-19T09:48:23.514Z,249.15
2023-02-19T09:49:25.755Z,247.92
2023-02-19T09:50:23.552Z,247.62
2023-02-19T09:51:23.554Z,247.70
2023-02-19T09:52:23.562Z,246.72
2023-02-19T09:53:23.506Z,247.40
2023-02-19T09:54:23.490Z,247.90
2023-02-19T09:55:23.440Z,248.54
2023-02-19T09:56:23.443Z,249.10
2023-02-19T09:57:23.434Z,248.90
2023-02-19T09:58:23.394Z,248.27
2023-02-19T09:59:23.406Z,249.10
2023-02-19T10:00:23.374Z,248.32
2023-02-19T10:01:23.350Z,248.49
2023-02-19T10:02:23.318Z,248.24
2023-02-19T10:03:23.295Z,247.70
2023-02-19T10:04:23.253Z,248.51
2023-02-19T10:05:23.311Z,247.68
2023-02-19T10:06:23.248Z,248.42
2023-02-19T10:07:23.231Z,247.50
2023-02-19T10:08:23.276Z,246.67
2023-02-19T10:09:23.191Z,248.40
2023-02-19T10:10:23.149Z,248.46
2023-02-19T10:11:23.148Z,248.91
2023-02-19T10:12:23.123Z,249.73
2023-02-19T10:13:23.079Z,249.73
2023-02-19T10:14:23.106Z,249.61
2023-02-19T10:15:23.070Z,247.67
2023-02-19T10:16:23.010Z,247.75
2023-02-19T10:17:23.010Z,248.36
2023-02-19T10:18:22.988Z,247.86
2023-02-19T10:19:22.994Z,248.11
2023-02-19T10:20:22.999Z,247.68
2023-02-19T10:21:22.951Z,249.37
2023-02-19T10:22:22.931Z,248.91
2023-02-19T10:23:22.924Z,248.47
2023-02-19T10:24:22.860Z,248.71
2023-02-19T10:25:22.852Z,248.20
2023-02-19T10:26:22.866Z,248.44
2023-02-19T10:27:22.858Z,248.25
2023-02-19T10:28:22.823Z,248.78
2023-02-19T10:29:22.777Z,249.50
2023-02-19T10:30:22.798Z,248.90
2023-02-19T10:31:22.839Z,249.09
2023-02-19T10:32:22.743Z,248.73
2023-02-19T10:33:22.727Z,248.16
2023-02-19T10:34:22.688Z,249.01
2023-02-19T10:35:22.698Z,249.19
2023-02-19T10:36:22.643Z,249.36
2023-02-19T10:37:22.650Z,248.15
2023-02-19T10:38:22.618Z,248.93
2023-02-19T10:39:22.592Z,248.97
2023-02-19T10:40:22.586Z,248.42
2023-02-19T10:41:22.557Z,248.97
2023-02-19T10:42:22.535Z,248.45
2023-02-19T10:43:22.552Z,246.94
2023-02-19T10:44:22.489Z,248.62
2023-02-19T10:45:22.491Z,247.18
2023-02-19T10:46:22.494Z,247.64
2023-02-19T10:47:22.450Z,250.00
2023-02-19T10:48:22.437Z,248.84
2023-02-19T10:49:22.411Z,249.39
2023-02-19T10:50:22.369Z,248.61
2023-02-19T10:51:22.380Z,249.34
2023-02-19T10:52:22.349Z,248.55
2023-02-19T10:53:22.363Z,248.21
2023-02-19T10:54:22.327Z,249.36
2023-02-19T10:55:22.328Z,249.36
2023-02-19T10:56:22.249Z,247.70
2023-02-19T10:57:22.239Z,248.27
2023-02-19T10:58:22.215Z,247.56
2023-02-19T10:59:22.161Z,247.60
2023-02-19T11:00:22.174Z,248.02
2023-02-19T11:01:22.190Z,248.33
2023-02-19T11:02:22.154Z,248.70
2023-02-19T11:03:22.104Z,248.22
2023-02-19T11:04:22.103Z,247.65
2023-02-19T11:05:22.020Z,248.17
2023-02-19T11:06:22.107Z,247.84
2023-02-19T11:07:21.977Z,248.13
2023-02-19T11:08:21.956Z,247.98
2023-02-19T11:09:21.949Z,245.82
2023-02-19T11:10:21.979Z,247.03
2023-02-19T11:11:21.891Z,246.77
2023-02-19T11:12:21.877Z,246.21
2023-02-19T11:13:21.959Z,248.07
2023-02-19T11:14:21.850Z,246.41
2023-02-19T11:15:21.800Z,246.24
2023-02-19T11:16:21.804Z,245.75
2023-02-19T11:17:21.720Z,245.85
2023-02-19T11:18:21.695Z,245.38
2023-02-19T11:19:21.701Z,245.32
2023-02-19T11:20:21.661Z,244.01
2023-02-19T11:21:21.694Z,244.36
2023-02-19T11:22:21.624Z,242.78
2023-02-19T11:23:21.578Z,243.83
2023-02-19T11:24:21.592Z,242.14
2023-02-19T11:25:21.551Z,243.83
2023-02-19T11:26:21.498Z,242.55
2023-02-19T11:27:21.518Z,242.45
2023-02-19T11:28:21.455Z,242.61
2023-02-19T11:29:21.431Z,241.91
2023-02-19T11:30:21.438Z,239.98
2023-02-19T11:31:21.467Z,239.74
2023-02-19T11:32:21.497Z,239.71
2023-02-19T11:33:21.326Z,239.41
2023-02-19T11:34:21.387Z,239.45
2023-02-19T11:35:21.285Z,238.97
2023-02-19T11:36:21.243Z,240.30
2023-02-19T11:37:21.277Z,240.47
2023-02-19T11:38:21.189Z,240.33
2023-02-19T11:39:21.173Z,240.71
2023-02-19T11:40:21.147Z,241.09
2023-02-19T11:41:21.118Z,240.46
2023-02-19T11:42:21.107Z,243.99
2023-02-19T11:43:21.076Z,243.30
2023-02-19T11:44:21.094Z,242.46
2023-02-19T11:45:21.029Z,241.43
2023-02-19T11:46:21.026Z,244.45
2023-02-19T11:47:21.008Z,244.24
2023-02-19T11:48:20.966Z,243.87
2023-02-19T11:49:20.934Z,244.37
2023-02-19T11:50:20.911Z,245.01
2023-02-19T11:51:20.906Z,245.28
2023-02-19T11:52:20.863Z,245.89
2023-02-19T11:53:20.857Z,245.97
2023-02-19T11:54:20.842Z,247.52
2023-02-19T11:55:20.770Z,247.68
2023-02-19T11:56:20.791Z,249.11
2023-02-19T11:57:20.752Z,247.51
2023-02-19T11:58:20.755Z,247.73
2023-02-19T11:59:20.717Z,248.65
2023-02-19T12:00:20.670Z,247.45
2023-02-19T12:01:20.647Z,248.73
2023-02-19T12:02:20.607Z,248.75
2023-02-19T12:03:20.598Z,247.84
2023-02-19T12:04:20.606Z,248.90
2023-02-19T12:05:20.629Z,248.76
2023-02-19T12:06:20.586Z,249.37
2023-02-19T12:07:22.930Z,249.78
2023-02-19T13:01:22.197Z,220.20
2023-02-19T13:50:18.615Z,249.08
2023-02-19T13:51:18.636Z,247.14
2023-02-19T13:52:18.609Z,247.52
2023-02-19T13:53:18.565Z,249.23
2023-02-19T13:54:18.542Z,249.56
2023-02-19T13:55:18.540Z,249.08
2023-02-19T13:56:18.595Z,248.25
2023-02-19T13:57:18.504Z,248.41
2023-02-19T13:58:18.472Z,249.42
2023-02-19T13:59:18.478Z,249.43
2023-02-19T14:00:18.435Z,248.79
2023-02-19T14:01:18.492Z,246.99
2023-02-19T14:02:18.425Z,246.73
2023-02-19T14:03:18.406Z,247.83
2023-02-19T14:04:18.372Z,247.55
2023-02-19T14:05:18.378Z,246.29
2023-02-19T14:06:18.480Z,246.57
2023-02-19T14:07:18.308Z,249.65
2023-02-19T14:08:18.304Z,249.88
2023-02-19T14:09:18.264Z,248.52
2023-02-19T14:10:18.236Z,246.58
2023-02-19T14:11:18.238Z,249.22
2023-02-19T14:12:18.212Z,245.39
2023-02-19T14:13:18.200Z,250.00
2023-02-19T14:14:18.164Z,245.84
2023-02-19T14:15:18.171Z,247.91
2023-02-19T14:16:18.138Z,248.42